Time;durP1;ratioP1;P1;durP2;ratioP2;P2;SDS_P1;SDS_P2;PMS_P1;PMS_P2;Temp;Humidity;BMP_temperature;BMP_pressure;BME280_temperature;BME280_humidity;BME280_pressure;Samples;Min_cycle;Max_cycle;Signal;HPM_P1;HPM_P2
2023/12/21 00:01:35;;;;;;;6.23;3.73;;;9.00;99.90;;;;;;5096023;28;20444;-80
2023/12/21 00:04:06;;;;;;;4.67;3.90;;;9.00;99.90;;;;;;5096642;28;20543;-81
2023/12/21 00:06:34;;;;;;;5.80;3.77;;;9.00;99.90;;;;;;5097748;28;20448;-80
2023/12/21 00:09:06;;;;;;;4.73;3.50;;;9.00;99.90;;;;;;5098435;28;20451;-80
2023/12/21 00:11:34;;;;;;;6.80;3.80;;;9.00;99.90;;;;;;5100111;28;20454;-81
2023/12/21 00:14:03;;;;;;;4.90;4.37;;;9.00;99.90;;;;;;5097054;28;20497;-79
2023/12/21 00:16:31;;;;;;;5.57;4.13;;;9.00;99.90;;;;;;5099302;28;20468;-82
2023/12/21 00:18:59;;;;;;;4.67;4.07;;;9.00;99.90;;;;;;5101760;28;20474;-82
2023/12/21 00:21:29;;;;;;;4.20;3.80;;;9.00;99.90;;;;;;5098877;28;20444;-81
2023/12/21 00:23:58;;;;;;;5.70;4.10;;;9.10;99.90;;;;;;5100167;28;20447;-79
2023/12/21 00:26:26;;;;;;;5.20;4.10;;;9.10;99.90;;;;;;5098979;28;20517;-83
2023/12/21 00:28:54;;;;;;;4.27;3.47;;;9.10;99.90;;;;;;5102598;28;20440;-82
2023/12/21 00:31:23;;;;;;;4.57;3.43;;;9.10;99.90;;;;;;5100007;28;20484;-82
2023/12/21 00:33:51;;;;;;;3.87;3.33;;;9.10;99.90;;;;;;5098203;28;20938;-82
2023/12/21 00:36:19;;;;;;;4.00;3.40;;;9.10;99.90;;;;;;5099761;28;20567;-82
2023/12/21 00:38:49;;;;;;;3.87;3.00;;;9.10;99.90;;;;;;5097926;28;20444;-80
2023/12/21 00:41:19;;;;;;;3.80;3.10;;;9.10;99.90;;;;;;5097941;28;20420;-81
2023/12/21 00:43:48;;;;;;;3.67;2.77;;;9.10;99.90;;;;;;5097112;28;20501;-82
2023/12/21 00:46:16;;;;;;;6.07;4.03;;;9.10;99.90;;;;;;5097495;28;20485;-80
2023/12/21 00:48:45;;;;;;;4.27;3.07;;;9.10;99.90;;;;;;5098234;28;20448;-81
2023/12/21 00:51:13;;;;;;;3.63;3.30;;;9.10;99.90;;;;;;5097696;28;20441;-79
2023/12/21 00:53:42;;;;;;;4.27;2.90;;;9.10;99.90;;;;;;5098841;28;20519;-79
2023/12/21 00:56:11;;;;;;;3.73;2.90;;;9.10;99.90;;;;;;5097852;28;20922;-80
2023/12/21 00:58:39;;;;;;;4.20;3.00;;;9.10;99.90;;;;;;5096608;28;20548;-79
2023/12/21 01:01:08;;;;;;;3.63;2.70;;;9.10;99.90;;;;;;5096349;28;20448;-81
2023/12/21 01:03:36;;;;;;;4.13;3.47;;;9.10;99.90;;;;;;5096957;28;20448;-82
2023/12/21 01:06:05;;;;;;;5.70;3.60;;;9.10;99.90;;;;;;5096359;28;20474;-81
2023/12/21 01:08:33;;;;;;;4.87;3.63;;;9.10;99.90;;;;;;5096520;28;20542;-81
2023/12/21 01:11:01;;;;;;;5.73;3.40;;;9.10;99.90;;;;;;5097402;28;20452;-81
2023/12/21 01:13:32;;;;;;;4.17;3.77;;;9.20;99.90;;;;;;5097011;28;20487;-81
2023/12/21 01:16:00;;;;;;;6.67;4.30;;;9.20;99.90;;;;;;5096503;28;20472;-82
2023/12/21 01:18:29;;;;;;;10.17;4.97;;;9.20;99.90;;;;;;5097277;28;20502;-80
2023/12/21 01:20:57;;;;;;;6.43;4.93;;;9.20;99.90;;;;;;5095856;28;20949;-80
2023/12/21 01:23:25;;;;;;;7.57;4.73;;;9.20;99.90;;;;;;5095242;28;20452;-81
2023/12/21 01:25:53;;;;;;;5.70;4.30;;;9.20;99.90;;;;;;5095741;28;20460;-80
2023/12/21 01:28:22;;;;;;;6.67;5.27;;;9.20;99.90;;;;;;5096714;28;20436;-79
2023/12/21 01:30:51;;;;;;;8.63;4.80;;;9.20;99.90;;;;;;5095536;28;20452;-80
2023/12/21 01:33:20;;;;;;;13.40;5.40;;;9.20;99.90;;;;;;5097444;28;20455;-80
2023/12/21 01:35:48;;;;;;;5.83;4.30;;;9.20;99.90;;;;;;5095527;28;20468;-81
2023/12/21 01:38:16;;;;;;;5.37;4.80;;;9.20;99.90;;;;;;5096082;28;20501;-79
2023/12/21 01:40:44;;;;;;;8.23;4.90;;;9.20;99.90;;;;;;5097783;28;20802;-81
2023/12/21 01:43:13;;;;;;;9.33;5.70;;;9.20;99.90;;;;;;5096842;28;20447;-81
2023/12/21 01:45:41;;;;;;;8.23;5.30;;;9.20;99.90;;;;;;5096861;28;20479;-79
2023/12/21 01:48:12;;;;;;;12.50;6.53;;;9.20;99.90;;;;;;5095751;28;20464;-82
2023/12/21 01:50:41;;;;;;;9.90;5.63;;;9.20;99.90;;;;;;5097978;28;20420;-79
2023/12/21 01:53:13;;;;;;;10.30;6.60;;;9.20;99.90;;;;;;5095528;28;20977;-80
2023/12/21 01:55:42;;;;;;;10.80;6.60;;;9.20;99.90;;;;;;5095237;28;20491;-80
2023/12/21 01:58:11;;;;;;;12.13;6.50;;;9.20;99.90;;;;;;5094902;28;20448;-79
2023/12/21 02:00:39;;;;;;;11.53;6.90;;;9.20;99.90;;;;;;5095067;28;20454;-79
2023/12/21 02:03:09;;;;;;;10.40;6.00;;;9.20;99.90;;;;;;5098219;28;20543;-79
2023/12/21 02:05:38;;;;;;;10.37;6.80;;;9.20;99.90;;;;;;5098345;28;21002;-79
2023/12/21 02:08:06;;;;;;;10.23;6.27;;;9.20;99.90;;;;;;5098093;28;20945;-79
2023/12/21 02:10:35;;;;;;;11.47;6.40;;;9.20;99.90;;;;;;5102381;28;20474;-79
2023/12/21 02:13:03;;;;;;;12.60;6.67;;;9.20;99.90;;;;;;5104142;28;20497;-79
2023/12/21 02:15:32;;;;;;;13.43;7.13;;;9.20;99.90;;;;;;5106522;28;20466;-79
2023/12/21 02:18:02;;;;;;;16.00;7.90;;;9.20;99.90;;;;;;5109209;28;20898;-80
2023/12/21 02:20:33;;;;;;;16.50;7.27;;;9.20;99.90;;;;;;5103871;28;20516;-78
2023/12/21 02:23:03;;;;;;;14.23;7.20;;;9.20;99.90;;;;;;5102273;28;20448;-80
2023/12/21 02:25:33;;;;;;;13.10;7.87;;;9.20;99.90;;;;;;5099083;28;20467;-80
2023/12/21 02:28:01;;;;;;;13.50;7.97;;;9.20;99.90;;;;;;5097947;28;20535;-79
2023/12/21 02:30:30;;;;;;;11.90;7.67;;;9.20;99.90;;;;;;5099598;28;20840;-80
2023/12/21 02:32:58;;;;;;;13.50;7.40;;;9.20;99.90;;;;;;5097886;28;20547;-78
2023/12/21 02:35:26;;;;;;;12.67;6.97;;;9.20;99.90;;;;;;5098687;28;20521;-79
2023/12/21 02:37:55;;;;;;;14.27;7.63;;;9.20;99.90;;;;;;5098203;28;20470;-79
2023/12/21 02:40:23;;;;;;;13.83;8.37;;;9.20;99.90;;;;;;5098625;28;20463;-79
2023/12/21 02:42:52;;;;;;;13.40;7.47;;;9.20;99.90;;;;;;5098333;28;20548;-79
2023/12/21 02:45:21;;;;;;;14.27;7.10;;;9.20;99.90;;;;;;5097968;28;20909;-79
2023/12/21 02:47:49;;;;;;;9.60;7.73;;;9.20;99.90;;;;;;5097855;28;20448;-79
2023/12/21 02:50:17;;;;;;;10.43;6.60;;;9.20;99.90;;;;;;5098326;28;20447;-78
2023/12/21 02:52:46;;;;;;;10.30;7.33;;;9.20;99.90;;;;;;5097942;28;21044;-79
2023/12/21 02:55:14;;;;;;;8.50;6.23;;;9.20;99.90;;;;;;5097770;28;20543;-79
2023/12/21 02:57:43;;;;;;;10.60;6.70;;;9.30;99.90;;;;;;5099065;28;20464;-79
2023/12/21 03:00:14;;;;;;;11.33;6.07;;;9.30;99.90;;;;;;5097474;28;20448;-79
2023/12/21 03:02:42;;;;;;;9.87;6.33;;;9.30;99.90;;;;;;5097532;28;20467;-80
2023/12/21 03:05:10;;;;;;;9.43;5.97;;;9.30;99.90;;;;;;5097742;28;20503;-81
2023/12/21 03:07:39;;;;;;;10.03;6.50;;;9.30;99.90;;;;;;5097261;28;20452;-78
2023/12/21 03:10:08;;;;;;;8.13;6.00;;;9.30;99.90;;;;;;5099497;28;20501;-80
2023/12/21 03:12:36;;;;;;;11.60;6.00;;;9.30;99.90;;;;;;5096653;28;20965;-79
2023/12/21 03:15:12;;;;;;;10.20;6.53;;;9.30;99.90;;;;;;5098647;28;20478;-79
2023/12/21 03:17:40;;;;;;;11.50;6.40;;;9.30;99.90;;;;;;5096853;28;20456;-79
2023/12/21 03:20:10;;;;;;;8.90;6.20;;;9.30;99.90;;;;;;5099001;28;20441;-80
2023/12/21 03:22:38;;;;;;;11.93;7.17;;;9.30;99.90;;;;;;5097156;28;20456;-80
2023/12/21 03:25:07;;;;;;;8.47;6.20;;;9.30;99.90;;;;;;5097154;28;20471;-79
2023/12/21 03:27:36;;;;;;;9.07;6.20;;;9.30;99.90;;;;;;5097003;28;20513;-80
2023/12/21 03:30:05;;;;;;;10.13;6.70;;;9.30;99.90;;;;;;5098418;28;20432;-80
2023/12/21 03:32:35;;;;;;;8.27;6.57;;;9.30;99.90;;;;;;5096781;28;20444;-79
2023/12/21 03:35:05;;;;;;;9.37;6.73;;;9.30;99.90;;;;;;5096199;28;20459;-79
2023/12/21 03:37:33;;;;;;;13.03;7.27;;;9.30;99.90;;;;;;5098299;28;20496;-81
2023/12/21 03:40:01;;;;;;;10.90;6.40;;;9.30;99.90;;;;;;5099749;28;20459;-82
2023/12/21 03:42:30;;;;;;;12.63;7.00;;;9.30;99.90;;;;;;5098708;28;20476;-80
2023/12/21 03:44:58;;;;;;;9.37;6.60;;;9.30;99.90;;;;;;5100092;28;20543;-81
2023/12/21 03:47:26;;;;;;;12.90;6.30;;;9.30;99.90;;;;;;5099642;28;20413;-80
2023/12/21 03:49:56;;;;;;;9.50;6.70;;;9.30;99.90;;;;;;5098475;28;20456;-81
2023/12/21 03:52:24;;;;;;;13.77;6.47;;;9.40;99.90;;;;;;5098277;28;20523;-81
2023/12/21 03:54:53;;;;;;;7.63;5.70;;;9.30;99.90;;;;;;5098327;28;20490;-80
2023/12/21 03:57:21;;;;;;;10.70;6.80;;;9.30;99.90;;;;;;5098019;28;20468;-81
2023/12/21 03:59:49;;;;;;;9.53;8.53;;;9.40;99.90;;;;;;5098060;28;20444;-80
2023/12/21 04:02:17;;;;;;;10.87;7.80;;;9.30;99.90;;;;;;5097637;28;20457;-79
2023/12/21 04:04:46;;;;;;;13.47;7.90;;;9.40;99.90;;;;;;5099532;28;20476;-80
2023/12/21 04:07:15;;;;;;;9.97;8.30;;;9.40;99.90;;;;;;5098338;28;20448;-80
2023/12/21 04:09:43;;;;;;;12.23;9.33;;;9.30;99.90;;;;;;5098883;28;20451;-80
2023/12/21 04:12:12;;;;;;;12.47;9.20;;;9.40;99.90;;;;;;5098869;28;20447;-82
2023/12/21 04:14:40;;;;;;;10.40;9.40;;;9.30;99.90;;;;;;5097387;28;20440;-80
2023/12/21 04:17:08;;;;;;;12.53;8.93;;;9.30;99.90;;;;;;5097494;28;20899;-80
2023/12/21 04:19:36;;;;;;;13.07;9.90;;;9.40;99.90;;;;;;5097474;28;20444;-80
2023/12/21 04:22:05;;;;;;;11.73;10.00;;;9.30;99.90;;;;;;5098221;28;20857;-80
2023/12/21 04:24:34;;;;;;;12.37;10.27;;;9.40;99.90;;;;;;5098872;28;20437;-82
2023/12/21 04:27:03;;;;;;;12.53;9.93;;;9.40;99.90;;;;;;5098231;28;21017;-81
2023/12/21 04:29:31;;;;;;;11.57;9.83;;;9.40;99.90;;;;;;5097913;28;20468;-81
2023/12/21 04:32:00;;;;;;;12.67;9.57;;;9.30;99.90;;;;;;5097814;28;20482;-82
2023/12/21 04:34:28;;;;;;;9.90;8.90;;;9.30;99.90;;;;;;5096708;28;20446;-81
2023/12/21 04:36:56;;;;;;;9.40;8.40;;;9.40;99.90;;;;;;5097159;28;20445;-81
2023/12/21 04:39:24;;;;;;;8.97;8.07;;;9.30;99.90;;;;;;5096480;28;20840;-80
2023/12/21 04:41:54;;;;;;;12.07;7.87;;;9.30;99.90;;;;;;5096655;28;20448;-81
2023/12/21 04:44:22;;;;;;;8.67;7.70;;;9.30;99.90;;;;;;5098145;28;20982;-81
2023/12/21 04:46:51;;;;;;;9.07;8.27;;;9.40;99.90;;;;;;5097169;28;20444;-81
2023/12/21 04:49:22;;;;;;;9.30;8.40;;;9.30;99.90;;;;;;5096423;28;20445;-80
2023/12/21 04:51:50;;;;;;;8.87;8.10;;;9.30;99.90;;;;;;5096351;28;20428;-79
2023/12/21 04:54:19;;;;;;;10.67;8.30;;;9.30;99.90;;;;;;5096040;28;20479;-81
2023/12/21 04:56:47;;;;;;;9.10;8.30;;;9.30;99.90;;;;;;5095791;28;20472;-81
2023/12/21 04:59:17;;;;;;;8.83;7.83;;;9.30;99.90;;;;;;5096984;28;20468;-80
2023/12/21 05:01:49;;;;;;;8.83;8.00;;;9.30;99.90;;;;;;5095384;28;20456;-81
2023/12/21 05:04:18;;;;;;;6.93;6.17;;;9.30;99.90;;;;;;5095187;28;20468;-81
2023/12/21 05:06:46;;;;;;;9.70;6.03;;;9.30;99.90;;;;;;5097113;28;20452;-81
2023/12/21 05:09:14;;;;;;;6.23;5.63;;;9.30;99.90;;;;;;5097583;28;20879;-81
2023/12/21 05:11:42;;;;;;;7.00;5.90;;;9.30;99.90;;;;;;5096455;28;20872;-81
2023/12/21 05:14:13;;;;;;;7.27;5.87;;;9.30;99.90;;;;;;5096303;28;20441;-81
2023/12/21 05:16:42;;;;;;;8.73;6.20;;;9.30;99.90;;;;;;5096863;28;20850;-81
2023/12/21 05:19:12;;;;;;;6.37;5.73;;;9.30;99.90;;;;;;5096210;28;20464;-78
2023/12/21 05:21:41;;;;;;;6.20;5.33;;;9.30;99.90;;;;;;5095785;28;20437;-81
2023/12/21 05:24:09;;;;;;;6.70;5.80;;;9.30;99.90;;;;;;5099595;28;20448;-80
2023/12/21 05:26:37;;;;;;;5.03;4.53;;;9.30;99.90;;;;;;5096259;28;21029;-80
2023/12/21 05:29:05;;;;;;;5.80;5.27;;;9.40;99.90;;;;;;5095403;28;20516;-80
2023/12/21 05:31:37;;;;;;;6.83;6.23;;;9.30;99.90;;;;;;5095916;28;20475;-81
2023/12/21 05:34:06;;;;;;;6.00;5.40;;;9.30;99.90;;;;;;5095229;28;20436;-81
2023/12/21 05:36:35;;;;;;;6.60;5.90;;;9.30;99.90;;;;;;5099173;28;20481;-81
2023/12/21 05:39:03;;;;;;;6.70;6.10;;;9.30;99.90;;;;;;5100307;28;20502;-81
2023/12/21 05:41:44;;;;;;;6.30;5.70;;;9.30;99.90;;;;;;5099516;28;20439;-80
2023/12/21 05:44:13;;;;;;;6.10;5.60;;;9.30;99.90;;;;;;5100540;28;20526;-80
2023/12/21 05:46:42;;;;;;;6.80;6.20;;;9.30;99.90;;;;;;5101311;28;20543;-79
2023/12/21 05:49:12;;;;;;;5.80;5.30;;;9.30;99.90;;;;;;5099804;28;20812;-82
2023/12/21 05:51:41;;;;;;;6.67;6.07;;;9.30;99.90;;;;;;5099506;28;20448;-81
2023/12/21 05:54:09;;;;;;;6.90;6.27;;;9.40;99.90;;;;;;5099565;28;20456;-80
2023/12/21 05:56:37;;;;;;;6.50;5.90;;;9.30;99.90;;;;;;5099555;28;20472;-81
2023/12/21 05:59:05;;;;;;;6.83;6.33;;;9.40;99.90;;;;;;5098699;28;20841;-82
2023/12/21 06:01:34;;;;;;;6.63;5.93;;;9.40;99.90;;;;;;5100091;28;20443;-82
2023/12/21 06:04:03;;;;;;;6.50;5.90;;;9.30;99.90;;;;;;5099539;28;20456;-81
2023/12/21 06:06:33;;;;;;;6.33;5.83;;;9.40;99.90;;;;;;5101773;28;20465;-81
2023/12/21 06:09:02;;;;;;;7.60;6.47;;;9.40;99.90;;;;;;5099522;28;20448;-82
2023/12/21 06:11:30;;;;;;;6.70;6.20;;;9.40;99.90;;;;;;5099425;28;20447;-80
2023/12/21 06:13:58;;;;;;;6.37;5.87;;;9.40;99.90;;;;;;5099902;28;20478;-81
2023/12/21 06:16:26;;;;;;;6.40;5.90;;;9.40;99.90;;;;;;5099014;28;20463;-81
2023/12/21 06:18:55;;;;;;;6.77;5.90;;;9.40;99.90;;;;;;5098758;28;20467;-82
2023/12/21 06:21:23;;;;;;;6.33;5.73;;;9.40;99.90;;;;;;5099194;28;20454;-82
2023/12/21 06:23:53;;;;;;;6.30;5.70;;;9.40;99.90;;;;;;5099028;28;21022;-82
2023/12/21 06:26:21;;;;;;;5.60;5.10;;;9.40;99.90;;;;;;5098913;28;20464;-82
2023/12/21 06:28:49;;;;;;;6.83;5.40;;;9.40;99.90;;;;;;5098318;28;20490;-82
2023/12/21 06:31:18;;;;;;;5.10;4.70;;;9.40;99.90;;;;;;5098676;28;20498;-81
2023/12/21 06:33:48;;;;;;;5.40;4.90;;;9.40;99.90;;;;;;5098840;28;20452;-80
2023/12/21 06:36:16;;;;;;;5.47;4.87;;;9.40;99.90;;;;;;5099131;28;20468;-82
2023/12/21 06:38:44;;;;;;;5.37;4.87;;;9.40;99.90;;;;;;5099284;28;20503;-83
2023/12/21 06:41:15;;;;;;;4.97;4.57;;;9.40;99.90;;;;;;5099826;28;20466;-81
2023/12/21 06:43:43;;;;;;;4.60;4.20;;;9.40;99.90;;;;;;5099475;28;20446;-82
2023/12/21 06:46:15;;;;;;;5.30;4.67;;;9.40;99.90;;;;;;5100368;28;20459;-82
2023/12/21 06:48:43;;;;;;;4.37;3.97;;;9.40;99.90;;;;;;5099522;28;20417;-80
2023/12/21 06:51:12;;;;;;;3.77;3.40;;;9.40;99.90;;;;;;5099948;28;20497;-81
2023/12/21 06:53:41;;;;;;;3.70;3.33;;;9.40;99.90;;;;;;5099545;28;20480;-82
2023/12/21 06:56:10;;;;;;;3.47;3.17;;;9.40;99.90;;;;;;5098325;28;20463;-81
2023/12/21 06:59:00;;;;;;;4.10;3.30;;;9.40;99.90;;;;;;5100300;28;20462;-82
2023/12/21 07:01:29;;;;;;;3.20;2.90;;;9.40;99.90;;;;;;5102052;28;20484;-82
2023/12/21 07:03:58;;;;;;;2.83;2.63;;;9.40;99.90;;;;;;5101629;28;20460;-82
2023/12/21 07:06:27;;;;;;;3.43;2.80;;;9.40;99.90;;;;;;5098833;28;20482;-81
2023/12/21 07:08:56;;;;;;;2.40;2.20;;;9.40;99.90;;;;;;5099527;28;20487;-81
2023/12/21 07:11:25;;;;;;;3.20;2.90;;;9.40;99.90;;;;;;5098875;28;20444;-81
2023/12/21 07:13:54;;;;;;;2.87;2.60;;;9.40;99.90;;;;;;5098608;28;20470;-82
2023/12/21 07:16:24;;;;;;;3.43;3.07;;;9.40;99.90;;;;;;5100620;28;20463;-82
2023/12/21 07:18:53;;;;;;;3.63;3.00;;;9.40;99.90;;;;;;5101728;28;20428;-82
2023/12/21 07:21:22;;;;;;;3.57;3.27;;;9.40;99.90;;;;;;5102242;28;20452;-82
2023/12/21 07:23:50;;;;;;;3.80;3.40;;;9.40;99.90;;;;;;5102866;28;20453;-82
2023/12/21 07:26:18;;;;;;;3.80;3.50;;;9.40;99.90;;;;;;5102009;28;20855;-83
2023/12/21 07:28:46;;;;;;;4.10;3.70;;;9.40;99.90;;;;;;5101535;28;20484;-83
2023/12/21 07:31:17;;;;;;;3.47;3.20;;;9.40;99.90;;;;;;5102202;28;20459;-82
2023/12/21 07:33:46;;;;;;;3.87;3.53;;;9.40;99.90;;;;;;5102043;28;20445;-82
2023/12/21 07:36:15;;;;;;;3.70;3.40;;;9.40;99.90;;;;;;5100646;28;20476;-82
2023/12/21 07:38:44;;;;;;;4.80;4.00;;;9.40;99.90;;;;;;5100040;28;20517;-81
2023/12/21 07:41:13;;;;;;;4.33;3.93;;;9.40;99.90;;;;;;5102735;28;20468;-84
2023/12/21 07:43:42;;;;;;;4.17;3.87;;;9.50;99.90;;;;;;5105602;28;20440;-80
2023/12/21 07:46:10;;;;;;;4.70;4.30;;;9.50;99.90;;;;;;5104751;28;20478;-81
2023/12/21 07:48:38;;;;;;;4.30;4.00;;;9.50;99.90;;;;;;5106124;28;20986;-83
2023/12/21 07:51:10;;;;;;;3.97;3.57;;;9.40;99.90;;;;;;5106070;28;20795;-83
2023/12/21 07:53:39;;;;;;;4.20;3.43;;;9.50;99.90;;;;;;5104123;28;20441;-81
2023/12/21 07:56:09;;;;;;;3.10;2.80;;;9.50;99.90;;;;;;5102589;28;20480;-82
2023/12/21 07:58:38;;;;;;;5.03;3.13;;;9.50;99.90;;;;;;5101575;28;20432;-83
2023/12/21 08:01:06;;;;;;;4.60;3.20;;;9.50;99.90;;;;;;5104797;28;20464;-83
2023/12/21 08:03:35;;;;;;;4.20;3.07;;;9.50;99.90;;;;;;5107162;28;20432;-79
2023/12/21 08:06:03;;;;;;;3.37;2.60;;;9.50;99.90;;;;;;5103621;28;20464;-80
2023/12/21 08:08:33;;;;;;;4.00;3.07;;;9.50;99.90;;;;;;5104536;28;20447;-80
2023/12/21 08:11:06;;;;;;;4.60;3.10;;;9.50;99.90;;;;;;5104271;28;20439;-80
2023/12/21 08:13:35;;;;;;;4.10;3.20;;;9.50;99.90;;;;;;5102328;28;20447;-81
2023/12/21 08:16:03;;;;;;;4.27;3.33;;;9.50;99.90;;;;;;5102058;28;20460;-82
2023/12/21 08:18:31;;;;;;;5.00;3.00;;;9.50;99.90;;;;;;5101272;28;20505;-82
2023/12/21 08:21:00;;;;;;;5.00;3.27;;;9.50;99.90;;;;;;5101836;28;20823;-81
2023/12/21 08:23:28;;;;;;;3.90;3.20;;;9.50;99.90;;;;;;5105942;28;20904;-82
2023/12/21 08:25:58;;;;;;;3.53;2.90;;;9.50;99.90;;;;;;5105577;28;20464;-82
2023/12/21 08:28:29;;;;;;;4.40;2.80;;;9.50;99.90;;;;;;5106709;28;20444;-82
2023/12/21 08:30:57;;;;;;;4.10;2.90;;;9.50;99.90;;;;;;5106966;28;20448;-83
2023/12/21 08:33:26;;;;;;;4.40;2.70;;;9.50;99.90;;;;;;5107592;28;20861;-82
2023/12/21 08:35:54;;;;;;;4.70;2.70;;;9.60;99.90;;;;;;5105033;28;20475;-80
2023/12/21 08:38:22;;;;;;;3.60;2.50;;;9.60;99.90;;;;;;5103972;28;20452;-81
2023/12/21 08:40:51;;;;;;;4.93;2.20;;;9.60;99.90;;;;;;5105954;28;20532;-81
2023/12/21 08:43:21;;;;;;;3.83;2.33;;;9.60;99.90;;;;;;5105185;28;20432;-82
2023/12/21 08:45:49;;;;;;;4.77;2.67;;;9.60;99.90;;;;;;5105332;28;20475;-81
2023/12/21 08:48:18;;;;;;;3.13;2.00;;;9.60;99.90;;;;;;5102170;28;20436;-82
2023/12/21 08:50:46;;;;;;;2.47;2.00;;;9.60;99.90;;;;;;5101662;28;20482;-81
2023/12/21 08:53:14;;;;;;;3.33;1.90;;;9.60;99.90;;;;;;5100767;28;20543;-82
2023/12/21 08:55:43;;;;;;;3.13;2.23;;;9.60;99.90;;;;;;5101607;28;20494;-81
2023/12/21 08:58:12;;;;;;;4.30;2.80;;;9.60;99.90;;;;;;5098630;28;20436;-79
2023/12/21 09:00:44;;;;;;;2.67;1.90;;;9.60;99.90;;;;;;5102774;28;20467;-82
2023/12/21 09:03:12;;;;;;;2.57;1.97;;;9.60;99.90;;;;;;5102577;28;20502;-81
2023/12/21 09:05:41;;;;;;;3.47;2.20;;;9.60;99.90;;;;;;5101367;28;20883;-82
2023/12/21 09:08:09;;;;;;;2.27;1.90;;;9.60;99.90;;;;;;5103157;28;20436;-82
2023/12/21 09:10:37;;;;;;;2.93;1.87;;;9.60;99.90;;;;;;5102833;28;20501;-82
2023/12/21 09:13:06;;;;;;;2.67;1.70;;;9.60;99.90;;;;;;5102250;28;20543;-83
2023/12/21 09:15:36;;;;;;;1.60;1.43;;;9.70;99.90;;;;;;5101131;28;20890;-83
2023/12/21 09:18:07;;;;;;;3.43;1.67;;;9.70;99.90;;;;;;5103240;28;20439;-82
2023/12/21 09:20:35;;;;;;;3.00;1.43;;;9.70;99.90;;;;;;5101619;28;20517;-81
2023/12/21 09:23:04;;;;;;;1.90;1.30;;;9.70;99.90;;;;;;5103778;28;20447;-81
2023/12/21 09:25:33;;;;;;;1.70;1.30;;;9.70;99.90;;;;;;5101357;28;20992;-83
2023/12/21 09:28:02;;;;;;;1.70;1.30;;;9.70;99.90;;;;;;5103568;28;20429;-82
2023/12/21 09:30:31;;;;;;;1.67;0.90;;;9.70;99.90;;;;;;5102233;28;20440;-82
2023/12/21 09:33:00;;;;;;;1.80;0.90;;;9.70;99.90;;;;;;5102776;28;20810;-83
2023/12/21 09:35:30;;;;;;;1.97;1.30;;;9.70;99.90;;;;;;5102156;28;20925;-81
2023/12/21 09:37:58;;;;;;;1.57;1.23;;;9.70;99.90;;;;;;5101601;28;20455;-81
2023/12/21 09:40:27;;;;;;;1.83;1.03;;;9.70;99.90;;;;;;5099255;28;20545;-83
2023/12/21 09:43:00;;;;;;;1.70;1.30;;;9.70;99.90;;;;;;5103033;28;20428;-83
2023/12/21 09:45:39;;;;;;;1.93;1.23;;;9.70;99.90;;;;;;5102403;28;20504;-84
2023/12/21 09:48:08;;;;;;;1.50;0.90;;;9.80;99.90;;;;;;5103093;28;20481;-82
2023/12/21 09:50:39;;;;;;;3.20;0.80;;;9.70;99.90;;;;;;5102067;28;20444;-83
2023/12/21 09:53:08;;;;;;;1.80;0.87;;;9.70;99.90;;;;;;5102531;28;20917;-82
2023/12/21 09:55:38;;;;;;;1.30;0.80;;;9.70;99.90;;;;;;5102505;28;20495;-83
2023/12/21 09:58:07;;;;;;;1.87;1.00;;;9.80;99.90;;;;;;5100945;28;20452;-83
2023/12/21 10:00:37;;;;;;;2.17;1.00;;;9.80;99.90;;;;;;5100436;28;20468;-81
2023/12/21 10:03:06;;;;;;;1.30;0.90;;;9.80;99.90;;;;;;5093385;28;20972;-79
2023/12/21 10:05:35;;;;;;;2.47;1.00;;;9.80;99.90;;;;;;5094894;28;20454;-81
2023/12/21 10:08:05;;;;;;;1.43;0.80;;;9.80;99.90;;;;;;5093307;28;20466;-81
2023/12/21 10:10:34;;;;;;;2.50;1.00;;;9.80;99.90;;;;;;5093654;28;20440;-82
2023/12/21 10:13:04;;;;;;;1.77;0.77;;;9.80;99.90;;;;;;5093357;28;20444;-83
2023/12/21 10:15:34;;;;;;;2.93;0.80;;;9.80;99.90;;;;;;5093196;28;20472;-81
2023/12/21 10:18:04;;;;;;;1.23;0.77;;;9.80;99.90;;;;;;5093594;28;20448;-81
2023/12/21 10:20:32;;;;;;;1.87;0.70;;;9.80;99.90;;;;;;5093748;28;20444;-79
2023/12/21 10:23:01;;;;;;;1.33;0.83;;;9.80;99.90;;;;;;5093986;28;20470;-82
2023/12/21 10:25:32;;;;;;;1.40;0.70;;;9.90;99.90;;;;;;5097107;28;20539;-83
2023/12/21 10:28:04;;;;;;;1.80;0.97;;;9.90;99.90;;;;;;5099585;28;20468;-87
2023/12/21 10:30:33;;;;;;;1.50;0.80;;;9.90;99.90;;;;;;5096966;28;20925;-83
2023/12/21 10:33:02;;;;;;;3.90;1.23;;;9.90;99.90;;;;;;5096923;28;20448;-81
2023/12/21 10:35:31;;;;;;;1.80;1.10;;;9.90;99.90;;;;;;5098401;28;20474;-82
2023/12/21 10:38:00;;;;;;;2.43;0.90;;;9.90;99.90;;;;;;5097850;28;20456;-82
2023/12/21 10:40:28;;;;;;;1.67;0.80;;;9.90;99.90;;;;;;5097801;28;20448;-86
2023/12/21 10:42:58;;;;;;;1.30;0.83;;;10.00;99.90;;;;;;5097911;28;20444;-84
2023/12/21 10:45:27;;;;;;;2.27;0.83;;;9.90;99.90;;;;;;5097044;28;20926;-84
2023/12/21 10:48:08;;;;;;;1.83;0.70;;;10.00;99.90;;;;;;5096893;28;20817;-82
2023/12/21 10:50:38;;;;;;;1.10;0.50;;;10.00;99.90;;;;;;5097410;28;20823;-82
2023/12/21 10:53:10;;;;;;;1.47;0.77;;;10.00;99.90;;;;;;5097185;28;20539;-83
2023/12/21 10:55:40;;;;;;;1.60;0.70;;;10.00;99.90;;;;;;5098186;28;20467;-83
2023/12/21 10:58:12;;;;;;;1.53;0.90;;;10.00;99.90;;;;;;5098665;28;20428;-84
2023/12/21 11:00:43;;;;;;;1.90;1.00;;;10.10;99.90;;;;;;5098815;28;20470;-83
2023/12/21 11:03:16;;;;;;;1.87;0.80;;;10.10;99.90;;;;;;5099165;28;20485;-83
2023/12/21 11:05:45;;;;;;;1.20;0.80;;;10.10;99.90;;;;;;5098625;28;20949;-84
2023/12/21 11:08:14;;;;;;;1.80;0.80;;;10.10;99.90;;;;;;5099411;28;20443;-81
2023/12/21 11:10:43;;;;;;;1.50;1.00;;;10.10;99.90;;;;;;5098427;28;20558;-82
2023/12/21 11:13:13;;;;;;;1.67;1.17;;;10.10;99.90;;;;;;5097873;28;20480;-83
2023/12/21 11:15:42;;;;;;;2.60;1.20;;;10.20;99.90;;;;;;5097524;28;20496;-82
2023/12/21 11:18:14;;;;;;;2.30;1.20;;;10.20;99.90;;;;;;5097780;28;20468;-81
2023/12/21 11:20:48;;;;;;;3.73;1.40;;;10.20;99.90;;;;;;5097371;28;20448;-84
2023/12/21 11:23:17;;;;;;;3.13;1.40;;;10.20;99.90;;;;;;5097076;28;20926;-81
2023/12/21 11:25:54;;;;;;;4.40;2.07;;;10.20;99.90;;;;;;5098589;28;20448;-81
2023/12/21 11:28:32;;;;;;;5.43;2.20;;;10.30;99.90;;;;;;5097366;28;20929;-79
2023/12/21 11:31:01;;;;;;;6.17;1.97;;;10.30;99.90;;;;;;5099530;28;20420;-80
2023/12/21 11:33:30;;;;;;;7.67;3.23;;;10.40;99.90;;;;;;5097346;28;20444;-80
2023/12/21 11:36:02;;;;;;;6.30;2.40;;;10.40;99.90;;;;;;5097992;28;20554;-80
2023/12/21 11:38:47;;;;;;;9.70;3.27;;;10.40;99.90;;;;;;5097409;28;20487;-84
2023/12/21 11:41:23;;;;;;;8.10;2.70;;;10.50;99.90;;;;;;5097262;28;20877;-80
2023/12/21 11:44:03;;;;;;;6.50;3.00;;;10.50;99.90;;;;;;5095638;28;20451;-83
2023/12/21 11:46:33;;;;;;;8.30;3.50;;;10.50;99.90;;;;;;5095268;28;20479;-80
2023/12/21 11:49:02;;;;;;;8.07;3.60;;;10.50;99.90;;;;;;5095403;28;20444;-81
2023/12/21 11:51:32;;;;;;;6.67;2.80;;;10.60;99.90;;;;;;5095822;28;20448;-81
2023/12/21 11:54:05;;;;;;;9.60;2.97;;;10.60;99.90;;;;;;5095882;28;20445;-80
2023/12/21 11:56:39;;;;;;;8.93;3.03;;;10.60;99.90;;;;;;5097156;28;20478;-80
2023/12/21 11:59:11;;;;;;;9.10;3.47;;;10.60;99.90;;;;;;5095524;28;20452;-83
2023/12/21 12:01:40;;;;;;;8.30;2.80;;;10.60;99.90;;;;;;5095523;28;20506;-81
2023/12/21 12:04:12;;;;;;;7.80;2.43;;;10.70;99.90;;;;;;5095194;28;20448;-79
2023/12/21 12:06:42;;;;;;;7.53;2.83;;;10.70;99.90;;;;;;5096719;28;20467;-82
2023/12/21 12:09:10;;;;;;;15.67;3.73;;;10.70;99.90;;;;;;5095932;28;20448;-81
2023/12/21 12:11:39;;;;;;;8.40;2.80;;;10.70;99.90;;;;;;5096834;28;20482;-79
2023/12/21 12:14:11;;;;;;;13.23;3.83;;;10.70;99.90;;;;;;5095422;28;20453;-78
2023/12/21 12:16:39;;;;;;;16.73;3.77;;;10.70;99.90;;;;;;5095838;28;20475;-80
2023/12/21 12:19:12;;;;;;;12.10;3.80;;;10.70;99.90;;;;;;5095479;28;20501;-80
2023/12/21 12:21:41;;;;;;;8.83;4.10;;;10.70;99.90;;;;;;5095378;28;20437;-78
2023/12/21 12:24:09;;;;;;;11.40;3.63;;;10.70;99.90;;;;;;5095043;28;20510;-82
2023/12/21 12:26:37;;;;;;;10.70;3.93;;;10.70;99.90;;;;;;5095214;28;20476;-81
2023/12/21 12:29:06;;;;;;;13.87;3.93;;;10.70;99.90;;;;;;5095581;28;20444;-83
2023/12/21 12:31:37;;;;;;;10.30;3.63;;;10.70;99.90;;;;;;5094774;28;20482;-79
2023/12/21 12:34:05;;;;;;;12.90;3.40;;;10.70;99.90;;;;;;5095150;28;20444;-83
2023/12/21 12:36:34;;;;;;;12.93;2.13;;;10.70;99.90;;;;;;5095855;28;20506;-81
2023/12/21 12:39:03;;;;;;;5.07;2.13;;;10.40;99.90;;;;;;5096375;28;20433;-80
2023/12/21 12:41:32;;;;;;;7.03;1.50;;;9.70;99.90;;;;;;5095308;28;20455;-82
2023/12/21 12:44:01;;;;;;;6.17;1.80;;;9.10;99.90;;;;;;5095426;28;20993;-79
2023/12/21 12:46:30;;;;;;;8.57;2.43;;;8.70;99.90;;;;;;5093744;28;20480;-78
2023/12/21 12:49:00;;;;;;;9.20;2.17;;;8.40;99.90;;;;;;5095291;28;20452;-80
2023/12/21 12:51:30;;;;;;;10.60;3.20;;;8.20;99.90;;;;;;5094671;28;20547;-78
2023/12/21 12:54:00;;;;;;;5.80;1.73;;;8.10;99.90;;;;;;5094788;28;20852;-79
2023/12/21 12:56:28;;;;;;;6.70;1.67;;;8.00;99.90;;;;;;5094761;28;20475;-80
2023/12/21 12:58:57;;;;;;;6.03;1.90;;;7.90;99.90;;;;;;5094354;28;20455;-82
2023/12/21 13:01:27;;;;;;;7.87;2.07;;;7.80;99.90;;;;;;5094566;28;20486;-80
2023/12/21 13:03:58;;;;;;;6.67;2.67;;;7.80;99.90;;;;;;5095795;28;20459;-80